Highland Heights, Kentucky
Current Conditions -  °F | °C
As of 11:53 PM on Thursday 27 Nov 2014 (Local Time) from KLUK Reporting Station
Overcast Overcast  
Wind Chill: -6°   Ceiling: 3700
Heat Index: -2°   Visibility: 10mi
Dew Point: -9°   Wind: 7mph
Humidity: 58%   Direction: 300°WNW
Pressure: 30.42"   Gusts: NA
Location:  39.0316°N, 84.4619°W
Report Text: KLUK 280453Z AUTO 30006KT 10SM OVC037 M02/M09 A3042 RMK AO2 SLP306 T10171089 400171017
Loading
Personal Weather Stations






























Interactive Weather Map New forecast layout! Learn more

10-Day Weather Forecast

Advertisements
Track Severe Weather on mobile